createdAt,value
2022-09-04T00:13:34.015Z,49.92
2022-09-04T00:30:24.772Z,50.06
2022-09-04T00:47:51.853Z,50.27
2022-09-04T01:04:46.781Z,50.28
2022-09-04T01:22:00.946Z,50.21
2022-09-04T01:38:55.212Z,50.25
2022-09-04T01:55:51.332Z,50.26
2022-09-04T02:12:48.149Z,50.20
2022-09-04T02:29:42.239Z,50.23
2022-09-04T02:46:43.027Z,50.27
2022-09-04T03:03:38.911Z,50.33
2022-09-04T03:20:28.492Z,50.46
2022-09-04T03:37:29.690Z,50.58
2022-09-04T03:54:35.945Z,50.64
2022-09-04T04:11:46.164Z,50.78
2022-09-04T04:29:00.146Z,51.01
2022-09-04T04:45:57.291Z,51.27
2022-09-04T05:02:54.979Z,51.81
2022-09-04T05:19:50.934Z,52.17
2022-09-04T05:36:51.903Z,52.57
2022-09-04T05:54:27.533Z,52.95
2022-09-04T06:11:41.483Z,53.33
2022-09-04T06:28:53.976Z,53.53
2022-09-04T06:46:02.194Z,53.81
2022-09-04T07:03:15.337Z,54.18
2022-09-04T07:20:07.740Z,54.38
2022-09-04T07:37:03.003Z,54.50
2022-09-04T07:54:22.817Z,54.65
2022-09-04T08:11:32.411Z,54.90
2022-09-04T08:28:42.985Z,54.91
2022-09-04T08:46:23.135Z,55.04
2022-09-04T09:03:52.410Z,55.02
2022-09-04T09:20:54.402Z,54.67
2022-09-04T09:38:12.219Z,54.72
2022-09-04T09:55:45.073Z,54.39
2022-09-04T10:13:06.754Z,53.76
2022-09-04T10:30:13.455Z,53.57
2022-09-04T10:47:17.323Z,53.17
2022-09-04T11:04:34.352Z,52.48
2022-09-04T11:22:22.794Z,52.03
2022-09-04T11:39:40.409Z,51.28
2022-09-04T11:56:43.899Z,51.06
2022-09-04T12:14:03.266Z,51.01
2022-09-04T12:31:08.518Z,51.25
2022-09-04T12:48:10.005Z,51.17
2022-09-04T13:05:07.136Z,51.14
2022-09-04T13:22:09.134Z,51.28
2022-09-04T13:39:27.952Z,51.35
2022-09-04T13:56:26.637Z,51.09
2022-09-04T14:13:28.728Z,50.77
2022-09-04T14:30:22.574Z,50.58
2022-09-04T14:47:21.267Z,50.68
2022-09-04T15:04:20.138Z,50.87
2022-09-04T15:21:17.283Z,50.70
2022-09-04T15:38:21.285Z,50.34
2022-09-04T15:55:22.465Z,49.89
2022-09-04T16:12:19.016Z,50.16
2022-09-04T16:29:17.889Z,50.42
2022-09-04T16:46:28.661Z,50.08
2022-09-04T17:03:24.653Z,50.10
2022-09-04T17:20:23.762Z,50.15
2022-09-04T17:40:55.608Z,49.98
2022-09-04T17:54:49.129Z,50.07
2022-09-04T18:12:00.271Z,50.19
2022-09-04T18:29:01.095Z,50.25
2022-09-04T18:50:34.960Z,50.24
2022-09-04T19:03:25.251Z,50.45
2022-09-04T19:20:19.138Z,50.27
2022-09-04T19:38:07.862Z,50.12
2022-09-04T19:54:36.789Z,50.22
2022-09-04T20:11:35.712Z,50.10
2022-09-04T20:28:46.493Z,50.07
2022-09-04T20:48:43.308Z,49.98
2022-09-04T21:03:14.862Z,49.89
2022-09-04T21:20:34.123Z,49.81
2022-09-04T21:37:33.404Z,49.40
2022-09-04T21:57:31.481Z,49.16
2022-09-04T22:13:38.064Z,49.00
2022-09-04T22:29:47.364Z,48.72
2022-09-04T22:47:23.021Z,48.48
2022-09-04T23:04:30.996Z,48.39
2022-09-04T23:26:38.329Z,48.16
2022-09-04T23:39:16.783Z,48.00
2022-09-04T23:56:29.916Z,47.87
